sensor_id;sensor_type;location;lat;lon;timestamp;P1;durP1;ratioP1;P2;durP2;ratioP2
75073;SDS011;63652;51.526;5.080;2023-01-08T00:01:54;5.20;;;1.95;;
75073;SDS011;63652;51.526;5.080;2023-01-08T00:04:20;6.70;;;2.25;;
75073;SDS011;63652;51.526;5.080;2023-01-08T00:06:45;7.05;;;2.42;;
75073;SDS011;63652;51.526;5.080;2023-01-08T00:09:11;6.95;;;2.38;;
75073;SDS011;63652;51.526;5.080;2023-01-08T00:11:37;5.28;;;2.15;;
75073;SDS011;63652;51.526;5.080;2023-01-08T00:14:03;6.63;;;2.72;;
75073;SDS011;63652;51.526;5.080;2023-01-08T00:16:28;6.95;;;2.45;;
75073;SDS011;63652;51.526;5.080;2023-01-08T00:18:54;5.90;;;2.70;;
75073;SDS011;63652;51.526;5.080;2023-01-08T00:21:19;4.50;;;2.20;;
75073;SDS011;63652;51.526;5.080;2023-01-08T00:23:45;6.70;;;2.08;;
75073;SDS011;63652;51.526;5.080;2023-01-08T00:26:10;6.82;;;2.50;;
75073;SDS011;63652;51.526;5.080;2023-01-08T00:28:37;5.45;;;2.03;;
75073;SDS011;63652;51.526;5.080;2023-01-08T00:31:03;7.32;;;2.20;;
75073;SDS011;63652;51.526;5.080;2023-01-08T00:33:29;5.53;;;2.30;;
75073;SDS011;63652;51.526;5.080;2023-01-08T00:35:55;6.82;;;2.45;;
75073;SDS011;63652;51.526;5.080;2023-01-08T00:38:24;6.05;;;2.63;;
75073;SDS011;63652;51.526;5.080;2023-01-08T00:40:50;5.50;;;2.92;;
75073;SDS011;63652;51.526;5.080;2023-01-08T00:43:16;6.65;;;2.20;;
75073;SDS011;63652;51.526;5.080;2023-01-08T00:45:41;4.32;;;2.42;;
75073;SDS011;63652;51.526;5.080;2023-01-08T00:48:09;7.78;;;2.33;;
75073;SDS011;63652;51.526;5.080;2023-01-08T00:50:35;7.20;;;2.83;;
75073;SDS011;63652;51.526;5.080;2023-01-08T00:53:00;8.77;;;3.03;;
75073;SDS011;63652;51.526;5.080;2023-01-08T00:55:27;6.95;;;2.95;;
75073;SDS011;63652;51.526;5.080;2023-01-08T00:57:53;4.15;;;2.10;;
75073;SDS011;63652;51.526;5.080;2023-01-08T01:00:18;5.25;;;2.60;;
75073;SDS011;63652;51.526;5.080;2023-01-08T01:02:43;7.53;;;2.70;;
75073;SDS011;63652;51.526;5.080;2023-01-08T01:05:10;5.13;;;2.30;;
75073;SDS011;63652;51.526;5.080;2023-01-08T01:07:39;6.88;;;2.45;;
75073;SDS011;63652;51.526;5.080;2023-01-08T01:10:08;4.97;;;2.20;;
75073;SDS011;63652;51.526;5.080;2023-01-08T01:12:35;7.22;;;2.00;;
75073;SDS011;63652;51.526;5.080;2023-01-08T01:15:01;5.15;;;1.83;;
75073;SDS011;63652;51.526;5.080;2023-01-08T01:17:27;6.82;;;2.00;;
75073;SDS011;63652;51.526;5.080;2023-01-08T01:19:52;5.75;;;2.58;;
75073;SDS011;63652;51.526;5.080;2023-01-08T01:22:17;10.45;;;2.90;;
75073;SDS011;63652;51.526;5.080;2023-01-08T01:24:43;7.07;;;2.85;;
75073;SDS011;63652;51.526;5.080;2023-01-08T01:27:08;5.57;;;2.22;;
75073;SDS011;63652;51.526;5.080;2023-01-08T01:29:33;6.15;;;1.50;;
75073;SDS011;63652;51.526;5.080;2023-01-08T01:31:59;5.18;;;2.17;;
75073;SDS011;63652;51.526;5.080;2023-01-08T01:34:24;6.32;;;2.03;;
75073;SDS011;63652;51.526;5.080;2023-01-08T01:36:49;3.97;;;1.60;;
75073;SDS011;63652;51.526;5.080;2023-01-08T01:39:15;3.33;;;1.70;;
75073;SDS011;63652;51.526;5.080;2023-01-08T01:41:42;5.97;;;1.50;;
75073;SDS011;63652;51.526;5.080;2023-01-08T01:47:23;6.43;;;1.30;;
75073;SDS011;63652;51.526;5.080;2023-01-08T01:53:03;2.28;;;0.95;;
75073;SDS011;63652;51.526;5.080;2023-01-08T01:55:34;3.95;;;0.77;;
75073;SDS011;63652;51.526;5.080;2023-01-08T01:58:07;7.15;;;1.48;;
75073;SDS011;63652;51.526;5.080;2023-01-08T02:00:42;2.97;;;0.90;;
75073;SDS011;63652;51.526;5.080;2023-01-08T02:03:12;4.20;;;1.02;;
75073;SDS011;63652;51.526;5.080;2023-01-08T02:08:14;4.47;;;0.75;;
75073;SDS011;63652;51.526;5.080;2023-01-08T02:10:53;8.02;;;0.88;;
75073;SDS011;63652;51.526;5.080;2023-01-08T02:13:26;1.90;;;0.60;;
75073;SDS011;63652;51.526;5.080;2023-01-08T02:15:59;2.95;;;0.43;;
75073;SDS011;63652;51.526;5.080;2023-01-08T02:18:35;3.63;;;0.95;;
75073;SDS011;63652;51.526;5.080;2023-01-08T02:21:12;1.55;;;0.45;;
75073;SDS011;63652;51.526;5.080;2023-01-08T02:23:45;3.90;;;1.30;;
75073;SDS011;63652;51.526;5.080;2023-01-08T02:28:44;2.30;;;0.50;;
75073;SDS011;63652;51.526;5.080;2023-01-08T02:31:13;6.40;;;0.77;;
75073;SDS011;63652;51.526;5.080;2023-01-08T02:33:39;4.18;;;1.33;;
75073;SDS011;63652;51.526;5.080;2023-01-08T02:45:01;2.05;;;0.40;;
75073;SDS011;63652;51.526;5.080;2023-01-08T02:50:31;5.22;;;0.63;;
75073;SDS011;63652;51.526;5.080;2023-01-08T02:55:38;4.65;;;0.63;;
75073;SDS011;63652;51.526;5.080;2023-01-08T02:58:06;2.38;;;0.40;;
75073;SDS011;63652;51.526;5.080;2023-01-08T03:00:31;2.10;;;0.50;;
75073;SDS011;63652;51.526;5.080;2023-01-08T03:03:03;4.40;;;0.93;;
75073;SDS011;63652;51.526;5.080;2023-01-08T03:05:31;3.42;;;0.40;;
75073;SDS011;63652;51.526;5.080;2023-01-08T03:07:57;3.10;;;0.50;;
75073;SDS011;63652;51.526;5.080;2023-01-08T03:10:23;2.55;;;0.50;;
75073;SDS011;63652;51.526;5.080;2023-01-08T03:12:52;5.55;;;0.85;;
75073;SDS011;63652;51.526;5.080;2023-01-08T03:15:29;5.15;;;0.60;;
75073;SDS011;63652;51.526;5.080;2023-01-08T03:17:57;4.20;;;1.15;;
75073;SDS011;63652;51.526;5.080;2023-01-08T03:20:26;3.75;;;0.73;;
75073;SDS011;63652;51.526;5.080;2023-01-08T03:22:53;2.83;;;0.60;;
75073;SDS011;63652;51.526;5.080;2023-01-08T03:25:21;3.38;;;0.57;;
75073;SDS011;63652;51.526;5.080;2023-01-08T03:27:48;3.67;;;0.60;;
75073;SDS011;63652;51.526;5.080;2023-01-08T03:30:17;3.92;;;0.60;;
75073;SDS011;63652;51.526;5.080;2023-01-08T03:32:43;3.28;;;0.40;;
75073;SDS011;63652;51.526;5.080;2023-01-08T03:35:09;2.72;;;0.70;;
75073;SDS011;63652;51.526;5.080;2023-01-08T03:37:37;3.58;;;0.90;;
75073;SDS011;63652;51.526;5.080;2023-01-08T03:42:30;1.42;;;0.55;;
75073;SDS011;63652;51.526;5.080;2023-01-08T03:44:57;4.03;;;0.60;;
75073;SDS011;63652;51.526;5.080;2023-01-08T03:47:23;4.95;;;1.25;;
75073;SDS011;63652;51.526;5.080;2023-01-08T03:49:50;2.60;;;0.80;;
75073;SDS011;63652;51.526;5.080;2023-01-08T03:52:20;5.00;;;0.63;;
75073;SDS011;63652;51.526;5.080;2023-01-08T03:54:50;3.95;;;0.68;;
75073;SDS011;63652;51.526;5.080;2023-01-08T03:57:15;3.55;;;1.10;;
75073;SDS011;63652;51.526;5.080;2023-01-08T03:59:41;4.05;;;0.80;;
75073;SDS011;63652;51.526;5.080;2023-01-08T04:02:06;3.97;;;0.80;;
75073;SDS011;63652;51.526;5.080;2023-01-08T04:04:32;3.95;;;0.90;;
75073;SDS011;63652;51.526;5.080;2023-01-08T04:06:58;6.22;;;1.48;;
75073;SDS011;63652;51.526;5.080;2023-01-08T04:09:23;3.20;;;1.00;;
75073;SDS011;63652;51.526;5.080;2023-01-08T04:11:48;3.92;;;0.77;;
75073;SDS011;63652;51.526;5.080;2023-01-08T04:14:14;3.15;;;0.73;;
75073;SDS011;63652;51.526;5.080;2023-01-08T04:16:39;2.63;;;0.70;;
75073;SDS011;63652;51.526;5.080;2023-01-08T04:19:05;3.47;;;0.80;;
75073;SDS011;63652;51.526;5.080;2023-01-08T04:21:30;3.03;;;1.23;;
75073;SDS011;63652;51.526;5.080;2023-01-08T04:23:56;4.57;;;1.38;;
75073;SDS011;63652;51.526;5.080;2023-01-08T04:26:21;4.60;;;1.02;;
75073;SDS011;63652;51.526;5.080;2023-01-08T04:28:46;5.63;;;1.05;;
75073;SDS011;63652;51.526;5.080;2023-01-08T04:31:12;2.70;;;1.00;;
75073;SDS011;63652;51.526;5.080;2023-01-08T04:33:37;3.17;;;0.98;;
75073;SDS011;63652;51.526;5.080;2023-01-08T04:36:03;4.47;;;0.88;;
75073;SDS011;63652;51.526;5.080;2023-01-08T04:38:29;2.03;;;0.80;;
75073;SDS011;63652;51.526;5.080;2023-01-08T04:40:58;10.30;;;1.13;;
75073;SDS011;63652;51.526;5.080;2023-01-08T04:43:24;3.22;;;0.90;;
75073;SDS011;63652;51.526;5.080;2023-01-08T04:45:50;1.73;;;0.80;;
75073;SDS011;63652;51.526;5.080;2023-01-08T04:48:15;2.15;;;0.82;;
75073;SDS011;63652;51.526;5.080;2023-01-08T04:50:41;4.70;;;0.82;;
75073;SDS011;63652;51.526;5.080;2023-01-08T04:53:06;2.83;;;0.73;;
75073;SDS011;63652;51.526;5.080;2023-01-08T04:55:32;4.53;;;0.93;;
75073;SDS011;63652;51.526;5.080;2023-01-08T04:57:57;3.08;;;0.77;;
75073;SDS011;63652;51.526;5.080;2023-01-08T05:00:23;1.33;;;0.50;;
75073;SDS011;63652;51.526;5.080;2023-01-08T05:02:48;1.88;;;0.80;;
75073;SDS011;63652;51.526;5.080;2023-01-08T05:05:13;1.70;;;0.57;;
75073;SDS011;63652;51.526;5.080;2023-01-08T05:07:39;4.45;;;0.75;;
75073;SDS011;63652;51.526;5.080;2023-01-08T05:10:05;1.90;;;0.60;;
75073;SDS011;63652;51.526;5.080;2023-01-08T05:12:31;2.80;;;0.70;;
75073;SDS011;63652;51.526;5.080;2023-01-08T05:14:56;3.45;;;0.82;;
75073;SDS011;63652;51.526;5.080;2023-01-08T05:17:21;2.13;;;0.57;;
75073;SDS011;63652;51.526;5.080;2023-01-08T05:19:47;2.00;;;0.60;;
75073;SDS011;63652;51.526;5.080;2023-01-08T05:22:12;2.72;;;0.60;;
75073;SDS011;63652;51.526;5.080;2023-01-08T05:24:37;3.42;;;0.80;;
75073;SDS011;63652;51.526;5.080;2023-01-08T05:27:03;1.33;;;0.43;;
75073;SDS011;63652;51.526;5.080;2023-01-08T05:29:28;4.90;;;1.13;;
75073;SDS011;63652;51.526;5.080;2023-01-08T05:31:53;7.03;;;1.05;;
75073;SDS011;63652;51.526;5.080;2023-01-08T05:34:19;6.47;;;1.00;;
75073;SDS011;63652;51.526;5.080;2023-01-08T05:36:44;5.22;;;0.93;;
75073;SDS011;63652;51.526;5.080;2023-01-08T05:39:10;3.70;;;0.80;;
75073;SDS011;63652;51.526;5.080;2023-01-08T05:41:35;3.00;;;1.13;;
75073;SDS011;63652;51.526;5.080;2023-01-08T05:44:01;4.68;;;0.73;;
75073;SDS011;63652;51.526;5.080;2023-01-08T05:46:26;1.98;;;0.68;;
75073;SDS011;63652;51.526;5.080;2023-01-08T05:48:52;3.50;;;0.70;;
75073;SDS011;63652;51.526;5.080;2023-01-08T05:51:17;6.65;;;1.05;;
75073;SDS011;63652;51.526;5.080;2023-01-08T05:53:42;3.08;;;0.55;;
75073;SDS011;63652;51.526;5.080;2023-01-08T05:56:09;1.95;;;0.50;;
75073;SDS011;63652;51.526;5.080;2023-01-08T05:58:35;2.22;;;0.57;;
75073;SDS011;63652;51.526;5.080;2023-01-08T06:03:34;3.13;;;0.90;;
75073;SDS011;63652;51.526;5.080;2023-01-08T06:06:00;1.80;;;0.60;;
75073;SDS011;63652;51.526;5.080;2023-01-08T06:08:27;3.20;;;0.60;;
75073;SDS011;63652;51.526;5.080;2023-01-08T06:10:53;6.63;;;1.00;;
75073;SDS011;63652;51.526;5.080;2023-01-08T06:13:18;6.97;;;1.08;;
75073;SDS011;63652;51.526;5.080;2023-01-08T06:15:44;3.13;;;0.80;;
75073;SDS011;63652;51.526;5.080;2023-01-08T06:18:09;8.98;;;1.13;;
75073;SDS011;63652;51.526;5.080;2023-01-08T06:20:34;6.50;;;0.80;;
75073;SDS011;63652;51.526;5.080;2023-01-08T06:23:00;4.97;;;0.70;;
75073;SDS011;63652;51.526;5.080;2023-01-08T06:25:25;8.20;;;0.77;;
75073;SDS011;63652;51.526;5.080;2023-01-08T06:27:51;3.53;;;0.90;;
75073;SDS011;63652;51.526;5.080;2023-01-08T06:30:16;6.97;;;1.30;;
75073;SDS011;63652;51.526;5.080;2023-01-08T06:32:42;7.65;;;1.10;;
75073;SDS011;63652;51.526;5.080;2023-01-08T06:35:07;6.53;;;0.65;;
75073;SDS011;63652;51.526;5.080;2023-01-08T06:37:33;8.48;;;1.25;;
75073;SDS011;63652;51.526;5.080;2023-01-08T06:39:58;4.22;;;0.70;;
75073;SDS011;63652;51.526;5.080;2023-01-08T06:42:24;4.13;;;0.90;;
75073;SDS011;63652;51.526;5.080;2023-01-08T06:44:49;4.70;;;1.48;;
75073;SDS011;63652;51.526;5.080;2023-01-08T06:47:15;4.28;;;0.95;;
75073;SDS011;63652;51.526;5.080;2023-01-08T06:49:40;8.32;;;1.25;;
75073;SDS011;63652;51.526;5.080;2023-01-08T06:52:05;4.88;;;0.80;;
75073;SDS011;63652;51.526;5.080;2023-01-08T06:54:31;7.15;;;1.05;;
75073;SDS011;63652;51.526;5.080;2023-01-08T06:56:56;4.53;;;0.60;;
75073;SDS011;63652;51.526;5.080;2023-01-08T06:59:21;5.38;;;0.68;;
75073;SDS011;63652;51.526;5.080;2023-01-08T07:01:47;2.80;;;0.60;;
75073;SDS011;63652;51.526;5.080;2023-01-08T07:04:12;7.57;;;1.52;;
75073;SDS011;63652;51.526;5.080;2023-01-08T07:06:38;6.40;;;0.90;;
75073;SDS011;63652;51.526;5.080;2023-01-08T07:09:03;6.57;;;1.00;;
75073;SDS011;63652;51.526;5.080;2023-01-08T07:11:29;5.30;;;1.20;;
75073;SDS011;63652;51.526;5.080;2023-01-08T07:13:54;8.07;;;1.25;;
75073;SDS011;63652;51.526;5.080;2023-01-08T07:16:20;4.60;;;1.50;;
75073;SDS011;63652;51.526;5.080;2023-01-08T07:18:45;7.68;;;1.25;;
75073;SDS011;63652;51.526;5.080;2023-01-08T07:21:11;12.07;;;2.33;;
75073;SDS011;63652;51.526;5.080;2023-01-08T07:23:36;5.97;;;1.98;;
75073;SDS011;63652;51.526;5.080;2023-01-08T07:26:02;8.25;;;1.35;;
75073;SDS011;63652;51.526;5.080;2023-01-08T07:28:29;7.25;;;1.27;;
75073;SDS011;63652;51.526;5.080;2023-01-08T07:30:55;8.05;;;1.38;;
75073;SDS011;63652;51.526;5.080;2023-01-08T07:33:20;5.18;;;1.10;;
75073;SDS011;63652;51.526;5.080;2023-01-08T07:35:52;5.13;;;1.05;;
75073;SDS011;63652;51.526;5.080;2023-01-08T07:38:18;6.30;;;1.30;;
75073;SDS011;63652;51.526;5.080;2023-01-08T07:40:43;6.03;;;1.45;;
75073;SDS011;63652;51.526;5.080;2023-01-08T07:43:09;5.07;;;1.45;;
75073;SDS011;63652;51.526;5.080;2023-01-08T07:45:36;7.47;;;1.13;;
75073;SDS011;63652;51.526;5.080;2023-01-08T07:48:02;7.40;;;1.25;;
75073;SDS011;63652;51.526;5.080;2023-01-08T07:50:28;7.90;;;1.58;;
75073;SDS011;63652;51.526;5.080;2023-01-08T07:52:57;3.80;;;0.93;;
75073;SDS011;63652;51.526;5.080;2023-01-08T07:55:23;4.22;;;0.93;;
75073;SDS011;63652;51.526;5.080;2023-01-08T07:57:48;6.70;;;1.25;;
75073;SDS011;63652;51.526;5.080;2023-01-08T08:00:14;4.68;;;1.15;;
75073;SDS011;63652;51.526;5.080;2023-01-08T08:02:39;11.68;;;1.30;;
75073;SDS011;63652;51.526;5.080;2023-01-08T08:05:05;8.40;;;1.48;;
75073;SDS011;63652;51.526;5.080;2023-01-08T08:07:30;5.97;;;1.15;;
75073;SDS011;63652;51.526;5.080;2023-01-08T08:09:56;8.48;;;1.20;;
75073;SDS011;63652;51.526;5.080;2023-01-08T08:12:21;6.05;;;1.25;;
75073;SDS011;63652;51.526;5.080;2023-01-08T08:14:46;4.75;;;1.17;;
75073;SDS011;63652;51.526;5.080;2023-01-08T08:17:12;6.53;;;1.23;;
75073;SDS011;63652;51.526;5.080;2023-01-08T08:19:37;4.68;;;0.80;;
75073;SDS011;63652;51.526;5.080;2023-01-08T08:22:02;9.57;;;1.23;;
75073;SDS011;63652;51.526;5.080;2023-01-08T08:24:28;8.77;;;0.93;;
75073;SDS011;63652;51.526;5.080;2023-01-08T08:26:53;6.90;;;1.10;;
75073;SDS011;63652;51.526;5.080;2023-01-08T08:29:19;3.92;;;1.10;;
75073;SDS011;63652;51.526;5.080;2023-01-08T08:31:44;6.60;;;0.98;;
75073;SDS011;63652;51.526;5.080;2023-01-08T08:34:10;4.22;;;1.20;;
75073;SDS011;63652;51.526;5.080;2023-01-08T08:36:35;6.63;;;1.48;;
75073;SDS011;63652;51.526;5.080;2023-01-08T08:39:04;6.88;;;1.13;;
75073;SDS011;63652;51.526;5.080;2023-01-08T08:41:29;4.68;;;0.95;;
75073;SDS011;63652;51.526;5.080;2023-01-08T08:43:58;3.00;;;0.73;;
75073;SDS011;63652;51.526;5.080;2023-01-08T08:46:24;5.57;;;0.90;;
75073;SDS011;63652;51.526;5.080;2023-01-08T08:48:50;7.15;;;0.95;;
75073;SDS011;63652;51.526;5.080;2023-01-08T08:51:18;6.43;;;0.65;;
75073;SDS011;63652;51.526;5.080;2023-01-08T08:53:43;6.20;;;1.05;;
75073;SDS011;63652;51.526;5.080;2023-01-08T08:56:16;5.95;;;1.08;;
75073;SDS011;63652;51.526;5.080;2023-01-08T08:58:42;9.55;;;1.67;;
75073;SDS011;63652;51.526;5.080;2023-01-08T09:01:09;6.35;;;0.88;;
75073;SDS011;63652;51.526;5.080;2023-01-08T09:03:34;6.13;;;0.90;;
75073;SDS011;63652;51.526;5.080;2023-01-08T09:05:59;5.47;;;1.10;;
75073;SDS011;63652;51.526;5.080;2023-01-08T09:08:25;7.88;;;1.27;;
75073;SDS011;63652;51.526;5.080;2023-01-08T09:10:50;3.05;;;0.80;;
75073;SDS011;63652;51.526;5.080;2023-01-08T09:13:16;5.25;;;1.00;;
75073;SDS011;63652;51.526;5.080;2023-01-08T09:15:42;8.27;;;1.33;;
75073;SDS011;63652;51.526;5.080;2023-01-08T09:18:07;9.45;;;1.35;;
75073;SDS011;63652;51.526;5.080;2023-01-08T09:20:33;6.10;;;1.30;;
75073;SDS011;63652;51.526;5.080;2023-01-08T09:22:58;4.82;;;1.08;;
75073;SDS011;63652;51.526;5.080;2023-01-08T09:25:25;6.07;;;1.50;;
75073;SDS011;63652;51.526;5.080;2023-01-08T09:27:58;5.10;;;1.05;;
75073;SDS011;63652;51.526;5.080;2023-01-08T09:30:27;4.20;;;1.10;;
75073;SDS011;63652;51.526;5.080;2023-01-08T09:32:57;5.88;;;1.00;;
75073;SDS011;63652;51.526;5.080;2023-01-08T09:35:25;4.85;;;1.25;;
75073;SDS011;63652;51.526;5.080;2023-01-08T09:37:52;6.90;;;1.45;;
75073;SDS011;63652;51.526;5.080;2023-01-08T09:40:18;6.15;;;0.93;;
75073;SDS011;63652;51.526;5.080;2023-01-08T09:42:46;4.22;;;0.93;;
75073;SDS011;63652;51.526;5.080;2023-01-08T09:45:28;7.75;;;1.30;;
75073;SDS011;63652;51.526;5.080;2023-01-08T09:47:55;6.90;;;1.63;;
75073;SDS011;63652;51.526;5.080;2023-01-08T09:50:22;4.25;;;1.08;;
75073;SDS011;63652;51.526;5.080;2023-01-08T09:52:50;7.53;;;1.15;;
75073;SDS011;63652;51.526;5.080;2023-01-08T09:55:16;5.85;;;1.08;;
75073;SDS011;63652;51.526;5.080;2023-01-08T09:57:42;4.65;;;1.45;;
75073;SDS011;63652;51.526;5.080;2023-01-08T10:00:12;4.57;;;1.08;;
75073;SDS011;63652;51.526;5.080;2023-01-08T10:02:38;9.00;;;1.85;;
75073;SDS011;63652;51.526;5.080;2023-01-08T10:05:16;7.70;;;1.98;;
75073;SDS011;63652;51.526;5.080;2023-01-08T10:07:42;9.00;;;2.00;;
75073;SDS011;63652;51.526;5.080;2023-01-08T10:10:16;5.35;;;1.58;;
75073;SDS011;63652;51.526;5.080;2023-01-08T10:12:46;7.60;;;1.30;;
75073;SDS011;63652;51.526;5.080;2023-01-08T10:15:14;8.00;;;2.08;;
75073;SDS011;63652;51.526;5.080;2023-01-08T10:17:44;11.23;;;1.38;;
75073;SDS011;63652;51.526;5.080;2023-01-08T10:22:37;6.93;;;0.95;;
75073;SDS011;63652;51.526;5.080;2023-01-08T10:25:07;4.72;;;1.45;;
75073;SDS011;63652;51.526;5.080;2023-01-08T10:27:45;3.63;;;1.10;;
75073;SDS011;63652;51.526;5.080;2023-01-08T10:33:00;10.40;;;1.67;;
75073;SDS011;63652;51.526;5.080;2023-01-08T10:35:30;4.95;;;1.60;;
75073;SDS011;63652;51.526;5.080;2023-01-08T10:37:58;3.47;;;0.90;;
75073;SDS011;63652;51.526;5.080;2023-01-08T10:40:34;4.78;;;1.10;;
75073;SDS011;63652;51.526;5.080;2023-01-08T10:43:05;1.98;;;1.02;;
75073;SDS011;63652;51.526;5.080;2023-01-08T10:45:32;2.55;;;0.60;;
75073;SDS011;63652;51.526;5.080;2023-01-08T10:47:58;8.93;;;1.17;;
75073;SDS011;63652;51.526;5.080;2023-01-08T10:50:26;4.03;;;0.80;;
75073;SDS011;63652;51.526;5.080;2023-01-08T10:53:00;5.35;;;0.85;;
75073;SDS011;63652;51.526;5.080;2023-01-08T10:55:28;3.83;;;0.90;;
75073;SDS011;63652;51.526;5.080;2023-01-08T11:00:33;6.43;;;1.08;;
75073;SDS011;63652;51.526;5.080;2023-01-08T11:03:00;2.45;;;0.75;;
75073;SDS011;63652;51.526;5.080;2023-01-08T11:05:30;2.28;;;0.60;;
75073;SDS011;63652;51.526;5.080;2023-01-08T11:07:57;2.00;;;0.73;;
75073;SDS011;63652;51.526;5.080;2023-01-08T11:10:24;1.30;;;0.55;;
75073;SDS011;63652;51.526;5.080;2023-01-08T11:12:55;2.08;;;0.60;;
75073;SDS011;63652;51.526;5.080;2023-01-08T11:18:03;3.42;;;0.60;;
75073;SDS011;63652;51.526;5.080;2023-01-08T11:20:37;2.70;;;0.73;;
75073;SDS011;63652;51.526;5.080;2023-01-08T11:23:04;3.47;;;0.50;;
75073;SDS011;63652;51.526;5.080;2023-01-08T11:25:30;1.45;;;0.30;;
75073;SDS011;63652;51.526;5.080;2023-01-08T11:27:55;6.63;;;0.95;;
75073;SDS011;63652;51.526;5.080;2023-01-08T11:30:22;1.65;;;0.45;;
75073;SDS011;63652;51.526;5.080;2023-01-08T11:32:50;3.05;;;0.50;;
75073;SDS011;63652;51.526;5.080;2023-01-08T11:35:41;1.73;;;0.40;;
75073;SDS011;63652;51.526;5.080;2023-01-08T11:38:10;2.88;;;0.57;;
75073;SDS011;63652;51.526;5.080;2023-01-08T11:40:41;3.45;;;0.90;;
75073;SDS011;63652;51.526;5.080;2023-01-08T11:51:40;1.05;;;0.43;;
75073;SDS011;63652;51.526;5.080;2023-01-08T11:57:08;2.40;;;0.52;;
75073;SDS011;63652;51.526;5.080;2023-01-08T11:59:58;4.18;;;0.60;;
75073;SDS011;63652;51.526;5.080;2023-01-08T12:02:53;4.60;;;0.70;;
75073;SDS011;63652;51.526;5.080;2023-01-08T12:05:24;2.90;;;0.57;;
75073;SDS011;63652;51.526;5.080;2023-01-08T12:34:40;3.83;;;1.17;;
75073;SDS011;63652;51.526;5.080;2023-01-08T12:37:13;1.98;;;0.60;;
75073;SDS011;63652;51.526;5.080;2023-01-08T12:40:22;3.92;;;0.80;;
75073;SDS011;63652;51.526;5.080;2023-01-08T12:42:31;1.92;;;0.88;;
75073;SDS011;63652;51.526;5.080;2023-01-08T12:44:59;2.50;;;0.52;;
75073;SDS011;63652;51.526;5.080;2023-01-08T12:47:27;3.58;;;0.70;;
75073;SDS011;63652;51.526;5.080;2023-01-08T12:52:31;6.07;;;0.82;;
75073;SDS011;63652;51.526;5.080;2023-01-08T12:55:45;3.88;;;0.63;;
75073;SDS011;63652;51.526;5.080;2023-01-08T12:57:55;1.58;;;0.50;;
75073;SDS011;63652;51.526;5.080;2023-01-08T13:00:33;7.32;;;1.08;;
75073;SDS011;63652;51.526;5.080;2023-01-08T13:03:03;4.25;;;0.95;;
75073;SDS011;63652;51.526;5.080;2023-01-08T13:05:34;7.88;;;1.13;;
75073;SDS011;63652;51.526;5.080;2023-01-08T13:12:55;8.02;;;1.25;;
75073;SDS011;63652;51.526;5.080;2023-01-08T13:15:22;5.82;;;1.15;;
75073;SDS011;63652;51.526;5.080;2023-01-08T13:17:50;5.32;;;0.98;;
75073;SDS011;63652;51.526;5.080;2023-01-08T13:20:29;2.83;;;0.93;;
75073;SDS011;63652;51.526;5.080;2023-01-08T13:23:01;2.65;;;0.60;;
75073;SDS011;63652;51.526;5.080;2023-01-08T13:25:33;9.13;;;1.50;;
75073;SDS011;63652;51.526;5.080;2023-01-08T13:33:45;3.42;;;0.90;;
75073;SDS011;63652;51.526;5.080;2023-01-08T13:36:13;5.20;;;1.00;;
75073;SDS011;63652;51.526;5.080;2023-01-08T13:38:43;2.55;;;0.85;;
75073;SDS011;63652;51.526;5.080;2023-01-08T13:46:40;2.25;;;0.70;;
75073;SDS011;63652;51.526;5.080;2023-01-08T13:49:06;3.15;;;0.55;;
75073;SDS011;63652;51.526;5.080;2023-01-08T13:56:40;5.85;;;0.73;;
75073;SDS011;63652;51.526;5.080;2023-01-08T13:59:16;3.08;;;0.90;;
75073;SDS011;63652;51.526;5.080;2023-01-08T14:01:54;3.58;;;0.80;;
75073;SDS011;63652;51.526;5.080;2023-01-08T14:04:21;7.78;;;0.90;;
75073;SDS011;63652;51.526;5.080;2023-01-08T14:06:47;2.25;;;0.77;;
75073;SDS011;63652;51.526;5.080;2023-01-08T14:09:18;5.32;;;1.05;;
75073;SDS011;63652;51.526;5.080;2023-01-08T14:11:46;6.25;;;0.80;;
75073;SDS011;63652;51.526;5.080;2023-01-08T14:14:15;4.95;;;0.90;;
75073;SDS011;63652;51.526;5.080;2023-01-08T14:16:41;7.05;;;0.88;;
75073;SDS011;63652;51.526;5.080;2023-01-08T14:19:07;4.95;;;0.77;;
75073;SDS011;63652;51.526;5.080;2023-01-08T14:21:32;3.78;;;0.70;;
75073;SDS011;63652;51.526;5.080;2023-01-08T14:23:58;3.85;;;0.80;;
75073;SDS011;63652;51.526;5.080;2023-01-08T14:26:34;3.20;;;1.00;;
75073;SDS011;63652;51.526;5.080;2023-01-08T14:29:01;6.22;;;1.27;;
75073;SDS011;63652;51.526;5.080;2023-01-08T14:31:28;4.80;;;0.90;;
75073;SDS011;63652;51.526;5.080;2023-01-08T14:33:54;4.43;;;0.77;;
75073;SDS011;63652;51.526;5.080;2023-01-08T14:36:21;6.45;;;1.00;;
75073;SDS011;63652;51.526;5.080;2023-01-08T14:38:47;5.28;;;1.23;;
75073;SDS011;63652;51.526;5.080;2023-01-08T14:41:32;6.35;;;1.00;;
75073;SDS011;63652;51.526;5.080;2023-01-08T14:44:18;3.75;;;0.75;;
75073;SDS011;63652;51.526;5.080;2023-01-08T14:46:44;6.53;;;0.82;;
75073;SDS011;63652;51.526;5.080;2023-01-08T14:49:21;2.22;;;0.90;;
75073;SDS011;63652;51.526;5.080;2023-01-08T14:51:49;3.83;;;0.60;;
75073;SDS011;63652;51.526;5.080;2023-01-08T14:54:19;4.88;;;0.98;;
75073;SDS011;63652;51.526;5.080;2023-01-08T14:56:48;1.55;;;0.70;;
75073;SDS011;63652;51.526;5.080;2023-01-08T14:59:15;8.75;;;1.15;;
75073;SDS011;63652;51.526;5.080;2023-01-08T15:01:48;2.10;;;0.52;;
75073;SDS011;63652;51.526;5.080;2023-01-08T15:04:19;1.98;;;0.70;;
75073;SDS011;63652;51.526;5.080;2023-01-08T15:06:45;5.60;;;0.95;;
75073;SDS011;63652;51.526;5.080;2023-01-08T15:11:56;4.55;;;0.80;;
75073;SDS011;63652;51.526;5.080;2023-01-08T15:14:24;4.15;;;1.15;;
75073;SDS011;63652;51.526;5.080;2023-01-08T15:16:52;5.93;;;0.65;;
75073;SDS011;63652;51.526;5.080;2023-01-08T15:19:23;1.45;;;0.38;;
75073;SDS011;63652;51.526;5.080;2023-01-08T15:21:59;4.47;;;0.65;;
75073;SDS011;63652;51.526;5.080;2023-01-08T15:24:30;6.53;;;1.17;;
75073;SDS011;63652;51.526;5.080;2023-01-08T15:26:59;5.10;;;1.25;;
75073;SDS011;63652;51.526;5.080;2023-01-08T15:29:34;3.08;;;0.60;;
75073;SDS011;63652;51.526;5.080;2023-01-08T15:32:07;5.90;;;0.75;;
75073;SDS011;63652;51.526;5.080;2023-01-08T15:34:32;2.40;;;0.75;;
75073;SDS011;63652;51.526;5.080;2023-01-08T15:36:58;3.97;;;0.88;;
75073;SDS011;63652;51.526;5.080;2023-01-08T15:39:23;10.18;;;1.40;;
75073;SDS011;63652;51.526;5.080;2023-01-08T15:41:48;6.45;;;1.48;;
75073;SDS011;63652;51.526;5.080;2023-01-08T15:44:43;4.07;;;1.20;;
75073;SDS011;63652;51.526;5.080;2023-01-08T15:47:10;3.70;;;0.90;;
75073;SDS011;63652;51.526;5.080;2023-01-08T15:49:35;6.25;;;1.05;;
75073;SDS011;63652;51.526;5.080;2023-01-08T15:52:01;5.57;;;0.85;;
75073;SDS011;63652;51.526;5.080;2023-01-08T15:54:26;3.65;;;0.90;;
75073;SDS011;63652;51.526;5.080;2023-01-08T15:56:51;4.60;;;0.65;;
75073;SDS011;63652;51.526;5.080;2023-01-08T15:59:17;3.90;;;0.50;;
75073;SDS011;63652;51.526;5.080;2023-01-08T16:01:42;5.32;;;0.70;;
75073;SDS011;63652;51.526;5.080;2023-01-08T16:04:07;3.33;;;0.85;;
75073;SDS011;63652;51.526;5.080;2023-01-08T16:06:33;2.13;;;0.80;;
75073;SDS011;63652;51.526;5.080;2023-01-08T16:09:00;4.03;;;0.77;;
75073;SDS011;63652;51.526;5.080;2023-01-08T16:11:25;4.55;;;0.70;;
75073;SDS011;63652;51.526;5.080;2023-01-08T16:13:51;3.78;;;0.80;;
75073;SDS011;63652;51.526;5.080;2023-01-08T16:16:17;2.92;;;0.80;;
75073;SDS011;63652;51.526;5.080;2023-01-08T16:18:44;5.35;;;0.70;;
75073;SDS011;63652;51.526;5.080;2023-01-08T16:21:10;1.92;;;0.40;;
75073;SDS011;63652;51.526;5.080;2023-01-08T16:23:36;4.95;;;0.70;;
75073;SDS011;63652;51.526;5.080;2023-01-08T16:26:08;5.63;;;0.60;;
75073;SDS011;63652;51.526;5.080;2023-01-08T16:28:37;3.95;;;1.08;;
75073;SDS011;63652;51.526;5.080;2023-01-08T16:31:02;2.80;;;1.13;;
75073;SDS011;63652;51.526;5.080;2023-01-08T16:33:28;5.57;;;0.90;;
75073;SDS011;63652;51.526;5.080;2023-01-08T16:35:54;3.47;;;0.90;;
75073;SDS011;63652;51.526;5.080;2023-01-08T16:38:23;5.53;;;1.00;;